Time;durP1;ratioP1;P1;durP2;ratioP2;P2;SDS_P1;SDS_P2;PMS_P1;PMS_P2;Temp;Humidity;BMP_temperature;BMP_pressure;BME280_temperature;BME280_humidity;BME280_pressure;Samples;Min_cycle;Max_cycle;Signal;HPM_P1;HPM_P2
2023/07/05 00:02:15;;;;;;;6.17;4.93;;;17.60;99.90;;;;;;5077290;28;20524;-60
2023/07/05 00:04:42;;;;;;;4.50;3.83;;;;;;;;;;5079255;28;20515;-57
2023/07/05 00:07:10;;;;;;;8.20;5.60;;;17.70;99.90;;;;;;5082012;28;20511;-57
2023/07/05 00:09:37;;;;;;;6.90;4.27;;;;;;;;;;5081140;28;20450;-60
2023/07/05 00:12:05;;;;;;;13.20;5.40;;;17.80;99.90;;;;;;5079875;28;20574;-60
2023/07/05 00:14:31;;;;;;;7.93;5.30;;;17.90;99.90;;;;;;5080039;28;20450;-60
2023/07/05 00:16:59;;;;;;;4.77;4.33;;;;;;;;;;5078380;28;20442;-62
2023/07/05 00:19:26;;;;;;;7.17;4.60;;;;;;;;;;5077410;28;20442;-61
2023/07/05 00:21:53;;;;;;;7.07;4.27;;;17.80;99.90;;;;;;5077353;28;20474;-60
2023/07/05 00:24:21;;;;;;;8.20;4.67;;;;;;;;;;5076795;28;21004;-59
2023/07/05 00:26:48;;;;;;;5.00;3.97;;;16.50;99.90;;;;;;5077430;28;20774;-61
2023/07/05 00:29:16;;;;;;;10.97;6.10;;;;;;;;;;5076904;28;20508;-60
2023/07/05 00:31:43;;;;;;;7.57;5.37;;;;;;;;;;5076791;28;20449;-58
2023/07/05 00:34:10;;;;;;;4.90;4.40;;;;;;;;;;5076758;28;20538;-61
2023/07/05 00:36:37;;;;;;;8.07;5.17;;;;;;;;;;5078141;28;20506;-59
2023/07/05 00:39:04;;;;;;;6.10;4.57;;;17.40;99.90;;;;;;5076863;28;20533;-58
2023/07/05 00:41:32;;;;;;;7.87;4.40;;;17.40;99.90;;;;;;5079332;28;20476;-61
2023/07/05 00:43:59;;;;;;;6.00;4.63;;;17.40;99.90;;;;;;5080174;28;20474;-61
2023/07/05 00:46:30;;;;;;;9.67;5.23;;;16.90;99.90;;;;;;5077125;28;20849;-58
2023/07/05 00:49:03;;;;;;;5.70;5.10;;;17.70;99.90;;;;;;5076129;28;20471;-59
2023/07/05 00:51:34;;;;;;;10.50;4.20;;;17.40;99.90;;;;;;5076507;28;20891;-58
2023/07/05 00:54:04;;;;;;;5.30;4.50;;;17.40;99.90;;;;;;5076868;28;20455;-59
2023/07/05 00:56:38;;;;;;;8.13;5.47;;;17.60;99.90;;;;;;5076865;28;20449;-59
2023/07/05 00:59:08;;;;;;;9.40;5.40;;;17.30;99.90;;;;;;5076688;28;20513;-57
2023/07/05 01:01:35;;;;;;;8.00;6.07;;;;;;;;;;5076502;28;20556;-60
2023/07/05 01:04:04;;;;;;;8.30;6.30;;;17.00;99.90;;;;;;5076389;28;20488;-61
2023/07/05 01:06:32;;;;;;;13.00;6.33;;;18.20;99.90;;;;;;5076459;28;20470;-59
2023/07/05 01:08:59;;;;;;;9.03;6.13;;;17.30;99.90;;;;;;5076744;28;20521;-59
2023/07/05 01:11:36;;;;;;;7.60;5.60;;;17.30;99.90;;;;;;5079574;28;20488;-60
2023/07/05 01:14:08;;;;;;;10.00;5.50;;;17.20;99.90;;;;;;5079759;28;20498;-59
2023/07/05 01:16:52;;;;;;;11.77;6.00;;;17.20;99.90;;;;;;5077547;28;20423;-57
2023/07/05 01:19:41;;;;;;;10.27;4.70;;;16.90;99.90;;;;;;5077016;28;20431;-59
2023/07/05 01:22:13;;;;;;;15.40;5.40;;;17.10;99.90;;;;;;5076595;28;20447;-60
2023/07/05 01:25:06;;;;;;;9.70;4.10;;;17.20;99.90;;;;;;5078578;28;20557;-57
2023/07/05 01:27:57;;;;;;;8.70;4.70;;;17.10;99.90;;;;;;5076097;28;20442;-60
2023/07/05 01:31:18;;;;;;;6.93;4.40;;;17.10;99.90;;;;;;5076033;28;20827;-60
2023/07/05 01:33:53;;;;;;;6.43;4.30;;;16.80;99.90;;;;;;5060572;28;20925;-57
2023/07/05 01:36:21;;;;;;;9.90;4.27;;;17.00;99.90;;;;;;5078437;28;20442;-59
2023/07/05 01:38:48;;;;;;;17.40;4.90;;;17.20;99.90;;;;;;5079802;28;20490;-60
2023/07/05 01:41:15;;;;;;;4.67;3.40;;;17.10;99.90;;;;;;5080193;28;20466;-62
2023/07/05 01:43:45;;;;;;;3.77;3.40;;;17.10;99.90;;;;;;5076098;28;20493;-60
2023/07/05 01:46:33;;;;;;;5.20;3.73;;;17.00;99.90;;;;;;5077938;28;20465;-59
2023/07/05 01:49:28;;;;;;;9.40;4.47;;;17.40;99.90;;;;;;5080123;28;20433;-58
2023/07/05 01:52:00;;;;;;;8.03;4.53;;;17.40;99.90;;;;;;5081440;28;20501;-56
2023/07/05 01:54:36;;;;;;;5.67;4.50;;;17.20;99.90;;;;;;5078173;28;20502;-58
2023/07/05 01:57:09;;;;;;;7.63;4.43;;;17.20;99.90;;;;;;5079282;28;20977;-57
2023/07/05 01:59:42;;;;;;;5.13;4.50;;;17.40;99.90;;;;;;5078439;28;20430;-58
2023/07/05 02:02:11;;;;;;;6.60;4.17;;;17.20;99.90;;;;;;5079077;28;20423;-60
2023/07/05 02:04:39;;;;;;;5.30;4.23;;;17.20;99.90;;;;;;5079038;28;20577;-59
2023/07/05 02:07:07;;;;;;;9.37;4.80;;;17.00;99.90;;;;;;5078569;28;20442;-56
2023/07/05 02:09:37;;;;;;;6.37;3.80;;;17.10;99.90;;;;;;5078485;28;20470;-59
2023/07/05 02:12:04;;;;;;;7.97;3.93;;;;;;;;;;5078006;28;20474;-58
2023/07/05 02:14:31;;;;;;;11.57;5.90;;;17.30;99.90;;;;;;5078533;28;20851;-58
2023/07/05 02:16:58;;;;;;;8.83;4.80;;;;;;;;;;5078279;28;20571;-58
2023/07/05 02:19:25;;;;;;;5.90;4.07;;;17.10;99.90;;;;;;5078543;28;20502;-59
2023/07/05 02:21:54;;;;;;;8.33;4.23;;;;;;;;;;5078716;28;20576;-60
2023/07/05 02:24:21;;;;;;;5.90;3.83;;;;;;;;;;5079193;28;20549;-59
2023/07/05 02:26:48;;;;;;;7.17;4.10;;;;;;;;;;5077877;28;20526;-59
2023/07/05 02:29:17;;;;;;;5.23;4.83;;;16.90;99.90;;;;;;5081769;28;20497;-59
2023/07/05 02:31:43;;;;;;;4.60;3.70;;;16.90;99.90;;;;;;5082577;28;20510;-60
2023/07/05 02:34:11;;;;;;;4.47;3.90;;;16.80;99.90;;;;;;5078135;28;20554;-61
2023/07/05 02:36:38;;;;;;;7.97;3.60;;;;;;;;;;5078327;28;20452;-60
2023/07/05 02:39:06;;;;;;;4.83;4.30;;;17.10;99.90;;;;;;5078168;28;20537;-59
2023/07/05 02:41:34;;;;;;;4.93;3.60;;;;;;;;;;5078637;28;20927;-60
2023/07/05 02:44:00;;;;;;;3.90;3.50;;;16.70;99.90;;;;;;5079628;28;20567;-59
2023/07/05 02:46:29;;;;;;;9.70;4.30;;;16.70;99.90;;;;;;5081083;28;20489;-58
2023/07/05 02:48:57;;;;;;;6.60;4.37;;;17.10;99.90;;;;;;5078731;28;20441;-58
2023/07/05 02:51:24;;;;;;;6.90;3.93;;;16.50;99.90;;;;;;5078126;28;20770;-59
2023/07/05 02:53:51;;;;;;;6.10;2.90;;;16.80;99.90;;;;;;5081303;28;20800;-56
2023/07/05 02:56:19;;;;;;;8.47;3.33;;;16.70;99.90;;;;;;5080904;28;20842;-60
2023/07/05 02:58:47;;;;;;;7.60;4.70;;;;;;;;;;5081485;28;20490;-58
2023/07/05 03:01:13;;;;;;;7.97;4.17;;;16.70;99.90;;;;;;5079581;28;20456;-60
2023/07/05 03:03:40;;;;;;;9.57;4.80;;;16.60;99.90;;;;;;5074321;28;20484;-60
2023/07/05 03:06:07;;;;;;;10.20;6.77;;;;;;;;;;5074324;28;20565;-60
2023/07/05 03:08:34;;;;;;;8.00;4.63;;;16.80;99.90;;;;;;5075198;28;20914;-58
2023/07/05 03:11:01;;;;;;;7.17;5.67;;;17.30;99.90;;;;;;5077336;28;20453;-59
2023/07/05 03:13:31;;;;;;;7.37;5.40;;;16.90;99.90;;;;;;5082744;28;20453;-59
2023/07/05 03:15:58;;;;;;;6.03;4.17;;;;;;;;;;5082521;28;20846;-59
2023/07/05 03:18:26;;;;;;;6.20;4.60;;;;;;;;;;5081717;28;20466;-60
2023/07/05 03:20:53;;;;;;;8.53;4.50;;;;;;;;;;5081151;28;20533;-57
2023/07/05 03:23:20;;;;;;;6.50;3.50;;;;;;;;;;5081801;28;20969;-58
2023/07/05 03:25:55;;;;;;;8.03;5.03;;;16.80;99.90;;;;;;5078550;28;20474;-57
2023/07/05 03:28:22;;;;;;;6.90;3.70;;;16.90;99.90;;;;;;5079164;28;20501;-60
2023/07/05 03:30:57;;;;;;;5.83;4.00;;;17.00;99.90;;;;;;5084389;28;20470;-59
2023/07/05 03:33:25;;;;;;;8.37;4.00;;;16.90;99.90;;;;;;5082882;28;20893;-59
2023/07/05 03:35:56;;;;;;;5.00;4.37;;;16.60;99.90;;;;;;5078615;28;20450;-60
2023/07/05 03:38:25;;;;;;;6.30;3.70;;;17.00;99.90;;;;;;5078150;28;20926;-59
2023/07/05 03:41:03;;;;;;;7.90;4.90;;;17.10;99.90;;;;;;5083366;28;20446;-57
2023/07/05 03:43:32;;;;;;;6.63;4.17;;;16.80;99.90;;;;;;5081222;28;20537;-60
2023/07/05 03:46:04;;;;;;;5.10;3.67;;;16.80;99.90;;;;;;5087441;28;20484;-59
2023/07/05 03:48:32;;;;;;;6.23;3.57;;;16.90;99.90;;;;;;5082338;28;20523;-59
2023/07/05 03:50:59;;;;;;;4.63;3.53;;;16.90;99.90;;;;;;5078675;28;20462;-60
2023/07/05 03:53:27;;;;;;;7.83;4.33;;;;;;;;;;5077561;28;21010;-60
2023/07/05 03:55:54;;;;;;;5.20;3.83;;;17.10;99.90;;;;;;5077441;28;20562;-58
2023/07/05 03:58:21;;;;;;;6.00;3.83;;;16.90;99.90;;;;;;5077759;28;20549;-60
2023/07/05 04:00:48;;;;;;;6.23;4.40;;;17.30;99.90;;;;;;5077318;28;20553;-60
2023/07/05 04:03:16;;;;;;;10.90;4.90;;;16.90;99.90;;;;;;5077689;28;20470;-59
2023/07/05 04:05:43;;;;;;;8.73;5.37;;;17.00;99.90;;;;;;5077720;28;20569;-61
2023/07/05 04:08:10;;;;;;;10.43;5.60;;;;;;;;;;5078010;28;20540;-62
2023/07/05 04:10:37;;;;;;;7.77;4.50;;;;;;;;;;5079246;28;20516;-60
2023/07/05 04:13:05;;;;;;;7.30;4.83;;;;;;;;;;5082055;28;20633;-61
2023/07/05 04:15:31;;;;;;;9.90;5.33;;;17.50;99.90;;;;;;5082776;28;20503;-60
2023/07/05 04:18:00;;;;;;;9.90;5.10;;;17.60;99.90;;;;;;5088389;28;20644;-62
2023/07/05 04:20:30;;;;;;;8.87;4.87;;;;;;;;;;5080540;28;20845;-61
2023/07/05 04:22:58;;;;;;;13.90;6.80;;;17.20;99.90;;;;;;5080318;28;20818;-58
2023/07/05 04:25:26;;;;;;;7.37;4.60;;;;;;;;;;5080584;28;20990;-61
2023/07/05 04:27:52;;;;;;;9.27;4.53;;;17.40;99.90;;;;;;5080348;28;20434;-61
2023/07/05 04:30:20;;;;;;;3.73;3.20;;;;;;;;;;5080334;28;20453;-60
2023/07/05 04:32:47;;;;;;;5.97;3.63;;;;;;;;;;5080133;28;20533;-59
2023/07/05 04:35:14;;;;;;;7.83;4.10;;;;;;;;;;5080283;28;20466;-60
2023/07/05 04:37:42;;;;;;;6.20;4.30;;;17.50;99.90;;;;;;5080296;28;20478;-59
2023/07/05 04:40:10;;;;;;;10.93;4.33;;;17.60;99.90;;;;;;5080383;28;20447;-60
2023/07/05 04:42:37;;;;;;;16.43;4.10;;;;;;;;;;5080258;28;20513;-58
2023/07/05 04:45:04;;;;;;;7.03;4.27;;;;;;;;;;5077377;28;21024;-60
2023/07/05 04:47:31;;;;;;;5.10;3.43;;;;;;;;;;5076602;28;20533;-62
2023/07/05 04:49:58;;;;;;;7.17;4.23;;;;;;;;;;5078651;28;20529;-58
2023/07/05 04:52:25;;;;;;;10.93;4.30;;;17.70;99.90;;;;;;5079631;28;20470;-58
2023/07/05 04:54:55;;;;;;;6.70;3.63;;;18.10;99.90;;;;;;5078351;28;20537;-59
2023/07/05 04:57:22;;;;;;;9.30;4.30;;;17.70;99.90;;;;;;5076702;28;20549;-59
2023/07/05 04:59:52;;;;;;;5.57;3.70;;;18.10;99.90;;;;;;5076363;28;20434;-60
2023/07/05 05:02:19;;;;;;;4.80;2.83;;;18.00;99.90;;;;;;5077324;28;20450;-58
2023/07/05 05:04:46;;;;;;;9.60;5.03;;;18.20;99.90;;;;;;5089458;28;20573;-60
2023/07/05 05:07:13;;;;;;;4.10;3.30;;;18.20;99.90;;;;;;5079966;28;20450;-61
2023/07/05 05:09:40;;;;;;;7.30;4.23;;;18.10;99.90;;;;;;5076362;28;20470;-60
2023/07/05 05:12:09;;;;;;;6.20;4.00;;;18.30;99.90;;;;;;5075919;28;20473;-59
2023/07/05 05:14:36;;;;;;;5.10;3.70;;;18.50;99.90;;;;;;5077351;28;20475;-60
2023/07/05 05:17:03;;;;;;;8.83;4.30;;;18.30;99.90;;;;;;5080449;28;20832;-57
2023/07/05 05:19:30;;;;;;;7.97;4.40;;;18.30;99.90;;;;;;5078348;28;20541;-59
2023/07/05 05:21:57;;;;;;;4.13;3.73;;;18.40;99.90;;;;;;5075872;28;20485;-61
2023/07/05 05:24:24;;;;;;;6.47;3.60;;;;;;;;;;5076063;28;20571;-61
2023/07/05 05:26:51;;;;;;;5.67;4.13;;;18.70;99.90;;;;;;5075745;28;20553;-59
2023/07/05 05:29:20;;;;;;;8.77;4.00;;;;;;;;;;5076042;28;20963;-60
2023/07/05 05:31:47;;;;;;;6.63;4.10;;;;;;;;;;5075865;28;20466;-60
2023/07/05 05:34:14;;;;;;;8.30;4.40;;;18.70;99.90;;;;;;5075003;28;20478;-57
2023/07/05 05:36:40;;;;;;;5.60;4.40;;;18.90;99.90;;;;;;5076302;28;20537;-60
2023/07/05 05:39:08;;;;;;;5.03;4.23;;;19.00;99.90;;;;;;5075504;28;20450;-60
2023/07/05 05:41:36;;;;;;;5.80;4.70;;;;;;;;;;5075803;28;20477;-59
2023/07/05 05:44:02;;;;;;;4.87;4.10;;;19.00;99.90;;;;;;5076049;28;20477;-62
2023/07/05 05:46:31;;;;;;;7.80;4.80;;;19.30;99.90;;;;;;5078967;28;20778;-60
2023/07/05 05:48:58;;;;;;;7.57;5.43;;;;;;;;;;5078522;28;20513;-59
2023/07/05 05:51:25;;;;;;;4.73;4.10;;;19.40;99.90;;;;;;5078604;28;20792;-59
2023/07/05 05:53:52;;;;;;;9.63;5.37;;;19.50;99.90;;;;;;5077867;28;20546;-59
2023/07/05 05:56:19;;;;;;;5.57;3.93;;;19.50;99.90;;;;;;5079379;28;20530;-59
2023/07/05 05:58:48;;;;;;;6.77;4.47;;;19.60;99.90;;;;;;5077793;28;20997;-59
2023/07/05 06:01:15;;;;;;;5.60;3.63;;;;;;;;;;5079221;28;20506;-60
2023/07/05 06:03:44;;;;;;;5.50;3.90;;;;;;;;;;5079985;28;20494;-61
2023/07/05 06:06:11;;;;;;;6.23;3.67;;;;;;;;;;5078109;28;20509;-58
2023/07/05 06:08:38;;;;;;;6.43;4.93;;;19.60;99.90;;;;;;5077824;28;20497;-61
2023/07/05 06:11:05;;;;;;;4.97;4.07;;;19.90;99.90;;;;;;5077456;28;20486;-60
2023/07/05 06:13:33;;;;;;;10.13;5.30;;;19.60;99.90;;;;;;5075238;28;20456;-58
2023/07/05 06:16:03;;;;;;;4.40;3.50;;;19.50;99.90;;;;;;5074994;28;20529;-59
2023/07/05 06:18:30;;;;;;;5.07;3.73;;;;;;;;;;5075121;28;20544;-55
2023/07/05 06:20:58;;;;;;;8.13;5.03;;;19.30;99.90;;;;;;5074801;28;20517;-59
2023/07/05 06:23:26;;;;;;;9.43;4.70;;;19.30;99.90;;;;;;5075232;28;20815;-59
2023/07/05 06:25:53;;;;;;;8.67;4.33;;;19.70;99.90;;;;;;5074744;28;20492;-61
2023/07/05 06:28:20;;;;;;;8.43;4.90;;;19.60;99.90;;;;;;5075293;28;20478;-59
2023/07/05 06:30:47;;;;;;;9.93;5.60;;;20.00;99.90;;;;;;5076361;28;20553;-61
2023/07/05 06:33:15;;;;;;;16.50;8.60;;;;;;;;;;5079076;28;20442;-58
2023/07/05 06:35:42;;;;;;;8.13;4.70;;;;;;;;;;5078512;28;20557;-61
2023/07/05 06:38:10;;;;;;;11.43;5.40;;;19.80;99.90;;;;;;5076779;28;20529;-62
2023/07/05 06:40:37;;;;;;;6.50;4.97;;;;;;;;;;5079504;28;21137;-61
2023/07/05 06:43:04;;;;;;;7.60;5.00;;;19.70;99.90;;;;;;5077428;28;20513;-63
2023/07/05 06:45:32;;;;;;;9.97;5.13;;;;;;;;;;5075287;28;20495;-61
2023/07/05 06:47:58;;;;;;;9.03;4.90;;;20.30;99.90;;;;;;5075793;28;20819;-62
2023/07/05 06:50:27;;;;;;;7.40;5.10;;;20.50;99.90;;;;;;5075961;28;20528;-61
2023/07/05 06:52:54;;;;;;;11.33;5.10;;;20.50;99.90;;;;;;5076053;28;20470;-61
2023/07/05 06:55:22;;;;;;;12.00;5.60;;;20.90;99.90;;;;;;5075990;28;20517;-63
2023/07/05 06:57:49;;;;;;;10.40;5.60;;;;;;;;;;5077138;28;20446;-64
2023/07/05 07:00:17;;;;;;;11.33;5.60;;;21.50;99.90;;;;;;5078487;28;20514;-62
2023/07/05 07:02:44;;;;;;;10.00;5.60;;;21.20;99.90;;;;;;5078138;28;20485;-60
2023/07/05 07:05:11;;;;;;;12.83;6.23;;;21.80;99.90;;;;;;5077086;28;20525;-64
2023/07/05 07:07:38;;;;;;;10.43;6.13;;;;;;;;;;5078601;28;20461;-61
2023/07/05 07:10:06;;;;;;;11.00;6.10;;;21.80;99.90;;;;;;5076970;28;20502;-60
2023/07/05 07:12:35;;;;;;;8.00;6.03;;;21.40;99.90;;;;;;5078022;28;20853;-60
2023/07/05 07:15:01;;;;;;;12.43;6.70;;;21.60;99.90;;;;;;5078983;28;20462;-61
2023/07/05 07:17:28;;;;;;;12.67;6.47;;;21.70;99.90;;;;;;5081445;28;20473;-60
2023/07/05 07:19:55;;;;;;;7.87;5.83;;;;;;;;;;5078406;28;20473;-59
2023/07/05 07:22:25;;;;;;;8.10;6.00;;;21.70;99.90;;;;;;5077440;28;20914;-59
2023/07/05 07:24:54;;;;;;;13.00;7.60;;;21.70;99.90;;;;;;5076170;28;20477;-60
2023/07/05 07:27:20;;;;;;;11.90;7.00;;;22.10;99.90;;;;;;5076623;28;20470;-60
2023/07/05 07:29:49;;;;;;;10.60;6.23;;;22.80;99.90;;;;;;5074366;28;20436;-61
2023/07/05 07:32:16;;;;;;;12.37;7.27;;;;;;;;;;5077885;28;20629;-62
2023/07/05 07:34:43;;;;;;;12.47;7.17;;;24.90;99.90;;;;;;5075352;28;20446;-61
2023/07/05 07:37:10;;;;;;;10.90;6.37;;;;;;;;;;5075071;28;20450;-62
2023/07/05 07:39:37;;;;;;;9.13;7.17;;;;;;;;;;5075712;28;20537;-63
2023/07/05 07:42:05;;;;;;;9.17;6.40;;;24.80;99.90;;;;;;5077698;28;20504;-60
2023/07/05 07:44:32;;;;;;;17.10;8.20;;;24.80;99.90;;;;;;5075773;28;20470;-63
2023/07/05 07:47:00;;;;;;;14.10;7.30;;;23.90;99.90;;;;;;5074149;28;20585;-61
2023/07/05 07:49:28;;;;;;;16.37;7.70;;;24.30;99.90;;;;;;5074304;28;20601;-62
2023/07/05 07:51:55;;;;;;;12.43;8.40;;;24.20;99.90;;;;;;5074920;28;20533;-61
2023/07/05 07:54:26;;;;;;;19.87;8.50;;;23.70;99.90;;;;;;5074132;28;20541;-61
2023/07/05 07:56:55;;;;;;;14.50;8.10;;;23.60;99.90;;;;;;5075394;28;20465;-61
2023/07/05 07:59:22;;;;;;;9.87;7.37;;;23.50;99.90;;;;;;5077507;28;20442;-63
2023/07/05 08:01:49;;;;;;;12.80;8.40;;;23.40;99.90;;;;;;5077670;28;20563;-61
2023/07/05 08:04:18;;;;;;;17.53;7.87;;;23.40;99.90;;;;;;5078421;28;20791;-61
2023/07/05 08:06:48;;;;;;;12.30;8.20;;;23.10;99.90;;;;;;5079798;28;20496;-60
2023/07/05 08:09:17;;;;;;;10.20;7.73;;;23.10;99.90;;;;;;5078391;28;20461;-60
2023/07/05 08:11:44;;;;;;;13.23;7.57;;;;;;;;;;5078094;28;21050;-60
2023/07/05 08:14:13;;;;;;;15.17;9.60;;;23.00;99.90;;;;;;5079321;28;20510;-59
2023/07/05 08:16:40;;;;;;;14.70;10.27;;;23.40;99.90;;;;;;5082209;28;20446;-58
2023/07/05 08:19:07;;;;;;;13.83;8.93;;;22.90;99.90;;;;;;5082521;28;20537;-60
2023/07/05 08:21:36;;;;;;;11.33;8.00;;;22.70;99.90;;;;;;5083368;28;20521;-61
2023/07/05 08:24:04;;;;;;;14.73;8.60;;;23.00;99.90;;;;;;5082644;28;20462;-61
2023/07/05 08:26:30;;;;;;;11.70;8.33;;;22.60;99.90;;;;;;5080609;28;20541;-60
2023/07/05 08:28:58;;;;;;;15.47;8.30;;;22.50;99.90;;;;;;5080358;28;20508;-61
2023/07/05 08:31:25;;;;;;;14.03;8.10;;;22.90;99.90;;;;;;5078484;28;20446;-61
2023/07/05 08:33:52;;;;;;;15.00;9.20;;;;;;;;;;5080908;28;20503;-61
2023/07/05 08:36:31;;;;;;;13.50;8.27;;;22.80;99.90;;;;;;5080146;28;20504;-60
2023/07/05 08:39:03;;;;;;;14.47;9.10;;;22.10;99.90;;;;;;5078340;28;20463;-61
2023/07/05 08:41:38;;;;;;;20.70;9.23;;;22.40;99.90;;;;;;5079720;28;20475;-61
2023/07/05 08:44:10;;;;;;;12.50;7.93;;;22.40;99.90;;;;;;5078788;28;20525;-60
2023/07/05 08:46:39;;;;;;;14.63;9.77;;;22.30;99.90;;;;;;5079987;28;20569;-63
2023/07/05 08:49:13;;;;;;;15.27;8.60;;;22.30;99.90;;;;;;5078089;28;20470;-59
2023/07/05 08:51:41;;;;;;;10.13;7.97;;;22.20;99.90;;;;;;5079611;28;20485;-60
2023/07/05 08:54:13;;;;;;;20.13;8.10;;;22.30;99.90;;;;;;5079669;28;20523;-61
2023/07/05 08:56:43;;;;;;;17.67;8.27;;;21.90;99.90;;;;;;5076871;28;20427;-60
2023/07/05 08:59:20;;;;;;;14.13;8.93;;;22.20;99.90;;;;;;5076782;28;20431;-60
2023/07/05 09:01:51;;;;;;;13.67;8.70;;;22.40;99.90;;;;;;5076866;28;20474;-63
2023/07/05 09:04:22;;;;;;;13.73;8.23;;;22.50;99.90;;;;;;5076529;28;20645;-60
2023/07/05 09:06:55;;;;;;;13.03;7.40;;;22.30;99.90;;;;;;5077439;28;20937;-58
2023/07/05 09:09:36;;;;;;;13.07;7.97;;;22.60;99.90;;;;;;5077718;28;20470;-60
2023/07/05 09:12:16;;;;;;;13.80;7.90;;;22.50;99.90;;;;;;5078612;28;20537;-61
2023/07/05 09:14:56;;;;;;;9.27;6.80;;;23.10;99.90;;;;;;5077200;28;20505;-61
2023/07/05 09:17:43;;;;;;;12.60;7.53;;;22.70;99.90;;;;;;5077569;28;20466;-60
2023/07/05 09:20:28;;;;;;;13.43;7.60;;;22.80;99.90;;;;;;5078249;28;20851;-61
2023/07/05 09:22:56;;;;;;;9.50;5.90;;;23.00;99.90;;;;;;5080062;28;20430;-61
2023/07/05 09:25:26;;;;;;;10.27;6.50;;;22.90;99.90;;;;;;5076643;28;20517;-61
2023/07/05 09:28:00;;;;;;;9.17;6.47;;;22.90;99.90;;;;;;5075887;28;20517;-59
2023/07/05 09:30:29;;;;;;;10.10;6.77;;;23.00;99.90;;;;;;5076090;28;20435;-62
2023/07/05 09:33:06;;;;;;;9.27;6.43;;;22.90;99.90;;;;;;5077521;28;20442;-59
2023/07/05 09:35:36;;;;;;;9.60;5.77;;;22.90;99.90;;;;;;5077270;28;20437;-60
2023/07/05 09:38:10;;;;;;;10.83;7.07;;;23.00;99.90;;;;;;5076696;28;20569;-61
2023/07/05 09:40:45;;;;;;;9.00;6.20;;;23.20;99.90;;;;;;5077612;28;20514;-62
2023/07/05 09:43:17;;;;;;;9.07;5.50;;;22.80;99.90;;;;;;5078618;28;20953;-60
2023/07/05 09:45:44;;;;;;;10.50;6.90;;;;;;;;;;5078935;28;20502;-62
2023/07/05 09:48:14;;;;;;;12.23;5.87;;;22.80;99.90;;;;;;5079621;28;20484;-61
2023/07/05 09:50:47;;;;;;;9.83;5.47;;;23.00;99.90;;;;;;5079398;28;20438;-61
2023/07/05 09:53:35;;;;;;;11.07;6.33;;;22.70;99.90;;;;;;5077601;28;20430;-61
2023/07/05 09:56:05;;;;;;;14.40;5.70;;;22.90;99.90;;;;;;5077709;28;20897;-59
2023/07/05 09:58:33;;;;;;;10.27;6.37;;;22.50;99.90;;;;;;5080889;28;20427;-58
2023/07/05 10:01:02;;;;;;;7.93;5.23;;;22.80;99.90;;;;;;5079045;28;20843;-61
2023/07/05 10:03:35;;;;;;;7.83;5.50;;;22.90;99.90;;;;;;5077769;28;20531;-60
2023/07/05 10:06:07;;;;;;;8.37;5.47;;;;;;;;;;5074903;28;20492;-61
2023/07/05 10:08:34;;;;;;;5.70;4.90;;;;;;;;;;5075098;28;20434;-61
2023/07/05 10:11:03;;;;;;;10.13;5.87;;;23.10;99.90;;;;;;5075827;28;20468;-61
2023/07/05 10:13:31;;;;;;;7.00;5.33;;;;;;;;;;5076279;28;20795;-60
2023/07/05 10:16:02;;;;;;;7.23;5.53;;;23.40;99.90;;;;;;5077670;28;20450;-59
2023/07/05 10:18:35;;;;;;;8.20;5.40;;;23.50;99.90;;;;;;5079595;28;20430;-59
2023/07/05 10:21:04;;;;;;;7.83;5.20;;;23.30;99.90;;;;;;5080010;28;20481;-61
2023/07/05 10:23:34;;;;;;;5.53;4.17;;;23.50;99.90;;;;;;5078388;28;20466;-60
2023/07/05 10:26:04;;;;;;;6.47;4.17;;;24.20;99.90;;;;;;5085702;28;20500;-59
2023/07/05 10:28:37;;;;;;;7.27;5.10;;;23.90;99.90;;;;;;5082130;28;20557;-60
2023/07/05 10:31:04;;;;;;;5.70;4.53;;;25.10;99.90;;;;;;5087430;28;20431;-60
2023/07/05 10:33:35;;;;;;;8.23;4.73;;;25.10;99.90;;;;;;5075467;28;20446;-62
2023/07/05 10:36:03;;;;;;;5.60;4.40;;;25.50;99.90;;;;;;5075279;28;20507;-57
2023/07/05 10:38:32;;;;;;;4.70;3.73;;;26.10;99.90;;;;;;5074937;28;20971;-60
2023/07/05 10:41:02;;;;;;;10.00;4.10;;;26.60;99.90;;;;;;5074895;28;20466;-59
2023/07/05 10:43:33;;;;;;;5.00;4.00;;;26.40;99.90;;;;;;5074919;28;20526;-62
2023/07/05 10:46:02;;;;;;;6.23;4.43;;;27.50;99.90;;;;;;5075363;28;20513;-61
2023/07/05 10:48:38;;;;;;;5.73;4.10;;;27.20;99.90;;;;;;5075430;28;20450;-62
2023/07/05 10:51:06;;;;;;;5.70;4.33;;;27.10;99.90;;;;;;5074664;28;20916;-60
2023/07/05 10:53:33;;;;;;;7.60;4.80;;;26.50;99.90;;;;;;5074502;28;21027;-61
2023/07/05 10:56:06;;;;;;;5.07;3.60;;;26.30;99.90;;;;;;5075104;28;20783;-62
2023/07/05 10:58:43;;;;;;;4.17;3.50;;;25.50;99.90;;;;;;5074827;28;20437;-62
2023/07/05 11:01:16;;;;;;;7.70;3.70;;;25.50;99.90;;;;;;5074771;28;20522;-61
2023/07/05 11:03:48;;;;;;;5.63;3.83;;;25.20;99.90;;;;;;5074772;28;20431;-64
2023/07/05 11:06:17;;;;;;;4.90;4.03;;;25.10;99.90;;;;;;5074726;28;20498;-62
2023/07/05 11:08:46;;;;;;;5.07;3.47;;;24.90;99.90;;;;;;5076799;28;20466;-63
2023/07/05 11:11:16;;;;;;;5.93;3.90;;;24.70;99.90;;;;;;5077094;28;20741;-61
2023/07/05 11:13:45;;;;;;;5.30;3.30;;;24.20;99.90;;;;;;5074518;28;20535;-60
2023/07/05 11:16:18;;;;;;;6.90;2.80;;;24.00;99.90;;;;;;5075103;28;20529;-61
2023/07/05 11:18:45;;;;;;;6.93;3.30;;;24.20;99.90;;;;;;5075490;28;20517;-61
2023/07/05 11:21:38;;;;;;;5.17;2.73;;;24.20;99.90;;;;;;5076315;28;20529;-59
2023/07/05 11:24:06;;;;;;;5.73;3.20;;;24.50;99.90;;;;;;5077246;28;20529;-57
2023/07/05 11:26:44;;;;;;;4.10;3.07;;;24.60;99.90;;;;;;5078026;28;20874;-61
2023/07/05 11:29:55;;;;;;;3.27;2.80;;;25.00;99.90;;;;;;5077772;28;20423;-60
2023/07/05 11:32:27;;;;;;;3.90;3.10;;;26.00;99.90;;;;;;5039566;28;20501;-61
2023/07/05 11:34:55;;;;;;;3.90;2.90;;;26.00;99.90;;;;;;5079399;28;20491;-60
2023/07/05 11:37:46;;;;;;;6.07;3.30;;;26.20;99.90;;;;;;5082162;28;20466;-61
2023/07/05 11:40:59;;;;;;;10.70;5.13;;;26.40;99.90;;;;;;5082472;28;20436;-62
2023/07/05 11:43:32;;;;;;;5.07;2.90;;;26.00;99.90;;;;;;5074654;28;20450;-60
2023/07/05 11:45:59;;;;;;;4.63;3.07;;;25.70;99.90;;;;;;5083191;28;20426;-60
2023/07/05 11:48:44;;;;;;;7.33;3.37;;;25.70;99.90;;;;;;5082116;28;20466;-61
2023/07/05 11:51:25;;;;;;;3.13;2.20;;;25.70;99.90;;;;;;5083488;28;20454;-59
2023/07/05 11:53:55;;;;;;;2.67;2.43;;;25.60;99.90;;;;;;5082529;28;20461;-61
2023/07/05 11:56:24;;;;;;;5.20;2.63;;;25.60;99.90;;;;;;5087465;28;20502;-62
2023/07/05 11:58:54;;;;;;;3.77;2.30;;;25.40;99.90;;;;;;5084477;28;20467;-62
2023/07/05 12:01:27;;;;;;;4.50;2.77;;;25.20;99.90;;;;;;5084925;28;20477;-63
2023/07/05 12:03:59;;;;;;;5.20;3.10;;;25.70;99.90;;;;;;5081998;28;20480;-61
2023/07/05 12:06:36;;;;;;;7.73;5.80;;;25.60;99.90;;;;;;5082574;28;20848;-60
2023/07/05 12:09:04;;;;;;;8.10;6.77;;;25.50;99.90;;;;;;5080193;28;20430;-62
2023/07/05 12:11:35;;;;;;;5.00;2.97;;;25.60;99.90;;;;;;5080102;28;20478;-58
2023/07/05 12:14:02;;;;;;;5.23;2.90;;;;;;;;;;5082941;28;20517;-61
2023/07/05 12:16:30;;;;;;;4.97;2.60;;;;;;;;;;5082464;28;20530;-61
2023/07/05 12:18:58;;;;;;;4.13;2.40;;;;;;;;;;5083039;28;20456;-61
2023/07/05 12:21:25;;;;;;;3.37;2.33;;;25.30;99.90;;;;;;5082244;28;20949;-59
2023/07/05 12:23:54;;;;;;;3.23;2.53;;;25.00;99.90;;;;;;5082575;28;20513;-61
2023/07/05 12:26:26;;;;;;;2.70;2.27;;;25.50;99.90;;;;;;5085300;28;20499;-57
2023/07/05 12:28:53;;;;;;;7.60;4.30;;;25.40;99.90;;;;;;5083388;28;20500;-62
2023/07/05 12:31:22;;;;;;;5.47;3.00;;;25.60;99.90;;;;;;5081898;28;20533;-60
2023/07/05 12:33:54;;;;;;;14.43;5.70;;;25.50;99.90;;;;;;5077609;28;20956;-55
2023/07/05 12:36:23;;;;;;;2.90;2.20;;;25.20;99.90;;;;;;5076991;28;20473;-61
2023/07/05 12:38:56;;;;;;;3.60;1.47;;;25.10;99.90;;;;;;5076763;28;20548;-62
2023/07/05 12:41:24;;;;;;;2.10;1.83;;;25.20;99.90;;;;;;5076947;28;20474;-62
2023/07/05 12:43:59;;;;;;;3.20;1.80;;;25.30;99.90;;;;;;5077875;28;20513;-61
2023/07/05 12:46:28;;;;;;;4.30;2.00;;;25.40;99.90;;;;;;5080600;28;20934;-61
2023/07/05 12:48:57;;;;;;;5.13;2.30;;;25.20;99.90;;;;;;5080418;28;20492;-60
2023/07/05 12:51:28;;;;;;;2.80;2.23;;;25.30;99.90;;;;;;5079836;28;20481;-60
2023/07/05 12:53:59;;;;;;;3.90;2.10;;;25.20;99.90;;;;;;5080755;28;20445;-60
2023/07/05 12:56:32;;;;;;;2.17;1.83;;;25.50;99.90;;;;;;5079639;28;20474;-59
2023/07/05 12:59:03;;;;;;;2.23;1.87;;;25.30;99.90;;;;;;5079947;28;20514;-61
2023/07/05 13:01:32;;;;;;;2.83;1.80;;;25.30;99.90;;;;;;5080515;28;20473;-59
2023/07/05 13:04:00;;;;;;;4.50;2.20;;;25.20;99.90;;;;;;5079657;28;20427;-62
2023/07/05 13:06:28;;;;;;;2.70;2.00;;;25.50;99.90;;;;;;5080174;28;20457;-59
2023/07/05 13:08:56;;;;;;;2.03;1.80;;;25.20;99.90;;;;;;5079325;28;20913;-61
2023/07/05 13:11:26;;;;;;;2.73;1.57;;;25.10;99.90;;;;;;5078556;28;20457;-60
2023/07/05 13:14:01;;;;;;;4.23;2.00;;;25.20;99.90;;;;;;5079356;28;20505;-61
2023/07/05 13:16:30;;;;;;;2.20;1.77;;;25.10;99.90;;;;;;5079272;28;20491;-61
2023/07/05 13:19:00;;;;;;;10.93;8.60;;;25.40;99.90;;;;;;5081600;28;20474;-60
2023/07/05 13:21:40;;;;;;;3.93;1.57;;;25.40;99.90;;;;;;5080793;28;20533;-61